PWSweather.com
Personal Weather Stations
Station Observations
ANTHEMNP
Anthem North Parkside, Anthem, AZ 85086

Anthem North ParksideAnthem, AZ 85086

Lat: 33.876464, Lon: -112.13861199999997

Elevation: 1930

Station Type: Davis Vantage Vue with Pro 2 console

http://www.azjerry.com/ANPW/wxindex.php

High Low Average
Temperature 107.1°F41.7°C 81.2°F27.3°C 94.5°F34.7°C
Dew Point 62.0°F16.7°C 51.0°F10.6°C 55.2°F12.9°C
Winds 8.6 mph 13.8 kmh Calm Calm 3.0 mph SE4.8 kmh SE
Wind Gusts 17.0 mph27.4 kmh -- 6.0 mph9.7 kmh
Humidity 44% 16% 28%
Pressure 29.89 in1012.2 mb 29.70 in1005.8 mb -
Precipitation 0.00 in0.0 mm - -
Hour Temp Dew Point Humidity Winds Wind Gusts Pressure Precip Precip Rate Daily Precip Total
12:00 AM 89.5°F31.9°C 54.0°F12.2°C 30% 0.3 mph NNE0.5 kmh NNE 1.0 mph1.6 kmh 29.84 in1010.5 mb 0.00 in0.0 mm 0.00 in0.0 mm 0.00 in0.0 mm
12:10 AM 88.8°F31.6°C 54.0°F12.2°C 31% 0.1 mph N0.2 kmh N 2.0 mph3.2 kmh 29.84 in1010.5 mb 0.00 in0.0 mm 0.00 in0.0 mm 0.00 in0.0 mm
12:20 AM 88.6°F31.4°C 54.0°F12.2°C 31% 1.0 mph N1.6 kmh N 2.0 mph3.2 kmh 29.84 in1010.5 mb 0.00 in0.0 mm 0.00 in0.0 mm 0.00 in0.0 mm
12:30 AM 88.1°F31.2°C 55.0°F12.8°C 32% 1.2 mph N1.9 kmh N 2.0 mph3.2 kmh 29.84 in1010.5 mb 0.00 in0.0 mm 0.00 in0.0 mm 0.00 in0.0 mm
12:40 AM 87.9°F31.1°C 55.0°F12.8°C 32% 1.3 mph NNE2.1 kmh NNE 3.0 mph4.8 kmh 29.84 in1010.5 mb 0.00 in0.0 mm 0.00 in0.0 mm 0.00 in0.0 mm
12:50 AM 87.6°F30.9°C 54.0°F12.2°C 32% 2.1 mph NNE3.4 kmh NNE 4.0 mph6.4 kmh 29.84 in1010.5 mb 0.00 in0.0 mm 0.00 in0.0 mm 0.00 in0.0 mm
01:00 AM 87.4°F30.8°C 54.0°F12.2°C 32% 1.2 mph NE1.9 kmh NE 2.0 mph3.2 kmh 29.85 in1010.8 mb 0.00 in0.0 mm 0.00 in0.0 mm 0.00 in0.0 mm
01:10 AM 87.1°F30.6°C 54.0°F12.2°C 32% 0.1 mph N0.2 kmh N 3.0 mph4.8 kmh 29.85 in1010.8 mb 0.00 in0.0 mm 0.00 in0.0 mm 0.00 in0.0 mm
01:20 AM 87.9°F31.1°C 54.0°F12.2°C 31% 1.8 mph N2.9 kmh N 5.0 mph8.0 kmh 29.85 in1010.8 mb 0.00 in0.0 mm 0.00 in0.0 mm 0.00 in0.0 mm
01:30 AM 87.9°F31.1°C 54.0°F12.2°C 31% 2.2 mph N3.5 kmh N 4.0 mph6.4 kmh 29.85 in1010.8 mb 0.00 in0.0 mm 0.00 in0.0 mm 0.00 in0.0 mm
01:40 AM 88.1°F31.2°C 54.0°F12.2°C 31% 2.8 mph N4.5 kmh N 6.0 mph9.7 kmh 29.85 in1010.8 mb 0.00 in0.0 mm 0.00 in0.0 mm 0.00 in0.0 mm
01:50 AM 88.1°F31.2°C 54.0°F12.2°C 31% 3.7 mph N6.0 kmh N 6.0 mph9.7 kmh 29.85 in1010.8 mb 0.00 in0.0 mm 0.00 in0.0 mm 0.00 in0.0 mm
02:00 AM 88.0°F31.1°C 55.0°F12.8°C 32% 3.2 mph NNE5.1 kmh NNE 9.0 mph14.5 kmh 29.85 in1010.8 mb 0.00 in0.0 mm 0.00 in0.0 mm 0.00 in0.0 mm
02:10 AM 87.6°F30.9°C 54.0°F12.2°C 32% 4.4 mph NE7.1 kmh NE 9.0 mph14.5 kmh 29.84 in1010.5 mb 0.00 in0.0 mm 0.00 in0.0 mm 0.00 in0.0 mm
02:20 AM 87.8°F31.0°C 54.0°F12.2°C 32% 5.1 mph NNW8.2 kmh NNW 10.0 mph16.1 kmh 29.85 in1010.8 mb 0.00 in0.0 mm 0.00 in0.0 mm 0.00 in0.0 mm
02:30 AM 87.5°F30.8°C 54.0°F12.2°C 32% 5.0 mph NNW8.0 kmh NNW 9.0 mph14.5 kmh 29.84 in1010.5 mb 0.00 in0.0 mm 0.00 in0.0 mm 0.00 in0.0 mm
02:40 AM 87.6°F30.9°C 54.0°F12.2°C 32% 5.3 mph NE8.5 kmh NE 10.0 mph16.1 kmh 29.84 in1010.5 mb 0.00 in0.0 mm 0.00 in0.0 mm 0.00 in0.0 mm
02:50 AM 87.6°F30.9°C 54.0°F12.2°C 32% 4.6 mph NNW7.4 kmh NNW 11.0 mph17.7 kmh 29.84 in1010.5 mb 0.00 in0.0 mm 0.00 in0.0 mm 0.00 in0.0 mm
03:00 AM 87.7°F30.9°C 54.0°F12.2°C 32% 3.9 mph ENE6.3 kmh ENE 9.0 mph14.5 kmh 29.84 in1010.5 mb 0.00 in0.0 mm 0.00 in0.0 mm 0.00 in0.0 mm
03:10 AM 87.2°F30.7°C 54.0°F12.2°C 32% 3.8 mph N6.1 kmh N 8.0 mph12.9 kmh 29.84 in1010.5 mb 0.00 in0.0 mm 0.00 in0.0 mm 0.00 in0.0 mm
03:20 AM 87.2°F30.7°C 54.0°F12.2°C 32% 4.6 mph NE7.4 kmh NE 9.0 mph14.5 kmh 29.84 in1010.5 mb 0.00 in0.0 mm 0.00 in0.0 mm 0.00 in0.0 mm
03:30 AM 86.8°F30.4°C 54.0°F12.2°C 32% 3.0 mph NE4.8 kmh NE 6.0 mph9.7 kmh 29.84 in1010.5 mb 0.00 in0.0 mm 0.00 in0.0 mm 0.00 in0.0 mm
03:40 AM 86.7°F30.4°C 53.0°F11.7°C 32% 2.5 mph SE4.0 kmh SE 7.0 mph11.3 kmh 29.85 in1010.8 mb 0.00 in0.0 mm 0.00 in0.0 mm 0.00 in0.0 mm
03:50 AM 86.4°F30.2°C 54.0°F12.2°C 33% 1.4 mph SE2.3 kmh SE 5.0 mph8.0 kmh 29.84 in1010.5 mb 0.00 in0.0 mm 0.00 in0.0 mm 0.00 in0.0 mm
04:00 AM 85.5°F29.7°C 53.0°F11.7°C 33% 0.3 mph NE0.5 kmh NE 1.0 mph1.6 kmh 29.85 in1010.8 mb 0.00 in0.0 mm 0.00 in0.0 mm 0.00 in0.0 mm
04:10 AM 85.5°F29.7°C 54.0°F12.2°C 34% 0.5 mph NE0.8 kmh NE 2.0 mph3.2 kmh 29.85 in1010.8 mb 0.00 in0.0 mm 0.00 in0.0 mm 0.00 in0.0 mm
04:20 AM 85.0°F29.4°C 54.0°F12.2°C 34% 0.1 mph N0.2 kmh N 1.0 mph1.6 kmh 29.85 in1010.8 mb 0.00 in0.0 mm 0.00 in0.0 mm 0.00 in0.0 mm
04:30 AM 85.5°F29.7°C 53.0°F11.7°C 33% 1.7 mph N2.7 kmh N 5.0 mph8.0 kmh 29.85 in1010.8 mb 0.00 in0.0 mm 0.00 in0.0 mm 0.00 in0.0 mm
04:40 AM 85.4°F29.7°C 53.0°F11.7°C 33% 1.3 mph NNE2.1 kmh NNE 3.0 mph4.8 kmh 29.85 in1010.8 mb 0.00 in0.0 mm 0.00 in0.0 mm 0.00 in0.0 mm
04:50 AM 85.1°F29.5°C 53.0°F11.7°C 33% 0.6 mph ENE1.0 kmh ENE 2.0 mph3.2 kmh 29.85 in1010.8 mb 0.00 in0.0 mm 0.00 in0.0 mm 0.00 in0.0 mm
05:00 AM 84.6°F29.2°C 53.0°F11.7°C 34% Calm Calm 1.0 mph1.6 kmh 29.86 in1011.2 mb 0.00 in0.0 mm 0.00 in0.0 mm 0.00 in0.0 mm
05:10 AM 84.1°F28.9°C 54.0°F12.2°C 36% 0.1 mph NE0.2 kmh NE 1.0 mph1.6 kmh 29.85 in1010.8 mb 0.00 in0.0 mm 0.00 in0.0 mm 0.00 in0.0 mm
05:20 AM 83.3°F28.5°C 54.0°F12.2°C 37% Calm Calm 1.0 mph1.6 kmh 29.86 in1011.2 mb 0.00 in0.0 mm 0.00 in0.0 mm 0.00 in0.0 mm
05:30 AM 82.5°F28.1°C 54.0°F12.2°C 38% Calm Calm -- 29.86 in1011.2 mb 0.00 in0.0 mm 0.00 in0.0 mm 0.00 in0.0 mm
05:40 AM 82.2°F27.9°C 55.0°F12.8°C 39% Calm Calm 1.0 mph1.6 kmh 29.87 in1011.5 mb 0.00 in0.0 mm 0.00 in0.0 mm 0.00 in0.0 mm
05:50 AM 82.3°F27.9°C 56.0°F13.3°C 40% 0.3 mph SE0.5 kmh SE 2.0 mph3.2 kmh 29.87 in1011.5 mb 0.00 in0.0 mm 0.00 in0.0 mm 0.00 in0.0 mm
06:00 AM 82.3°F27.9°C 56.0°F13.3°C 40% 0.2 mph SE0.3 kmh SE 2.0 mph3.2 kmh 29.87 in1011.5 mb 0.00 in0.0 mm 0.00 in0.0 mm 0.00 in0.0 mm
06:10 AM 82.2°F27.9°C 56.0°F13.3°C 40% 0.5 mph SE0.8 kmh SE 1.0 mph1.6 kmh 29.87 in1011.5 mb 0.00 in0.0 mm 0.00 in0.0 mm 0.00 in0.0 mm
06:20 AM 81.5°F27.5°C 55.0°F12.8°C 40% 0.2 mph N0.3 kmh N 2.0 mph3.2 kmh 29.88 in1011.9 mb 0.00 in0.0 mm 0.00 in0.0 mm 0.00 in0.0 mm
06:30 AM 81.4°F27.4°C 55.0°F12.8°C 41% 0.3 mph NNE0.5 kmh NNE 2.0 mph3.2 kmh 29.88 in1011.9 mb 0.00 in0.0 mm 0.00 in0.0 mm 0.00 in0.0 mm
06:40 AM 81.2°F27.3°C 56.0°F13.3°C 42% 0.1 mph NNE0.2 kmh NNE 1.0 mph1.6 kmh 29.88 in1011.9 mb 0.00 in0.0 mm 0.00 in0.0 mm 0.00 in0.0 mm
06:50 AM 81.6°F27.6°C 55.0°F12.8°C 40% 0.3 mph NNE0.5 kmh NNE 2.0 mph3.2 kmh 29.89 in1012.2 mb 0.00 in0.0 mm 0.00 in0.0 mm 0.00 in0.0 mm
07:00 AM 82.3°F27.9°C 54.0°F12.2°C 38% 0.4 mph N0.6 kmh N 2.0 mph3.2 kmh 29.89 in1012.2 mb 0.00 in0.0 mm 0.00 in0.0 mm 0.00 in0.0 mm
07:10 AM 83.3°F28.5°C 54.0°F12.2°C 37% 0.9 mph N1.4 kmh N 2.0 mph3.2 kmh 29.89 in1012.2 mb 0.00 in0.0 mm 0.00 in0.0 mm 0.00 in0.0 mm
07:20 AM 84.1°F28.9°C 57.0°F13.9°C 40% 0.2 mph N0.3 kmh N 1.0 mph1.6 kmh 29.89 in1012.2 mb 0.00 in0.0 mm 0.00 in0.0 mm 0.00 in0.0 mm
07:30 AM 84.5°F29.2°C 60.0°F15.6°C 44% 0.1 mph SE0.2 kmh SE 2.0 mph3.2 kmh 29.89 in1012.2 mb 0.00 in0.0 mm 0.00 in0.0 mm 0.00 in0.0 mm
07:40 AM 85.1°F29.5°C 61.0°F16.1°C 44% 0.1 mph SE0.2 kmh SE 1.0 mph1.6 kmh 29.89 in1012.2 mb 0.00 in0.0 mm 0.00 in0.0 mm 0.00 in0.0 mm
07:50 AM 87.5°F30.8°C 62.0°F16.7°C 42% 0.4 mph SE0.6 kmh SE 3.0 mph4.8 kmh 29.89 in1012.2 mb 0.00 in0.0 mm 0.00 in0.0 mm 0.00 in0.0 mm
08:00 AM 88.8°F31.6°C 62.0°F16.7°C 40% 0.9 mph SE1.4 kmh SE 3.0 mph4.8 kmh 29.89 in1012.2 mb 0.00 in0.0 mm 0.00 in0.0 mm 0.00 in0.0 mm
08:10 AM 91.0°F32.8°C 62.0°F16.7°C 38% 0.2 mph SE0.3 kmh SE 1.0 mph1.6 kmh 29.88 in1011.9 mb 0.00 in0.0 mm 0.00 in0.0 mm 0.00 in0.0 mm
08:20 AM 92.2°F33.4°C 62.0°F16.7°C 36% 0.3 mph ESE0.5 kmh ESE 2.0 mph3.2 kmh 29.88 in1011.9 mb 0.00 in0.0 mm 0.00 in0.0 mm 0.00 in0.0 mm
08:30 AM 94.0°F34.4°C 62.0°F16.7°C 34% 0.3 mph SSW0.5 kmh SSW 3.0 mph4.8 kmh 29.88 in1011.9 mb 0.00 in0.0 mm 0.00 in0.0 mm 0.00 in0.0 mm
08:40 AM 93.0°F33.9°C 61.0°F16.1°C 34% 1.2 mph SE1.9 kmh SE 3.0 mph4.8 kmh 29.88 in1011.9 mb 0.00 in0.0 mm 0.00 in0.0 mm 0.00 in0.0 mm
08:50 AM 94.0°F34.4°C 60.0°F15.6°C 32% 0.3 mph SE0.5 kmh SE 1.0 mph1.6 kmh 29.88 in1011.9 mb 0.00 in0.0 mm 0.00 in0.0 mm 0.00 in0.0 mm
09:00 AM 94.6°F34.8°C 59.0°F15.0°C 30% 0.6 mph E1.0 kmh E 2.0 mph3.2 kmh 29.88 in1011.9 mb 0.00 in0.0 mm 0.00 in0.0 mm 0.00 in0.0 mm
09:10 AM 94.6°F34.8°C 60.0°F15.6°C 31% 0.4 mph SE0.6 kmh SE 3.0 mph4.8 kmh 29.88 in1011.9 mb 0.00 in0.0 mm 0.00 in0.0 mm 0.00 in0.0 mm
09:20 AM 95.2°F35.1°C 58.0°F14.4°C 29% 0.8 mph ESE1.3 kmh ESE 3.0 mph4.8 kmh 29.88 in1011.9 mb 0.00 in0.0 mm 0.00 in0.0 mm 0.00 in0.0 mm
09:30 AM 95.1°F35.1°C 58.0°F14.4°C 29% 1.3 mph S2.1 kmh S 4.0 mph6.4 kmh 29.88 in1011.9 mb 0.00 in0.0 mm 0.00 in0.0 mm 0.00 in0.0 mm
09:40 AM 94.8°F34.9°C 58.0°F14.4°C 29% 2.0 mph SSW3.2 kmh SSW 5.0 mph8.0 kmh 29.88 in1011.9 mb 0.00 in0.0 mm 0.00 in0.0 mm 0.00 in0.0 mm
09:50 AM 95.4°F35.2°C 58.0°F14.4°C 29% 1.2 mph SE1.9 kmh SE 4.0 mph6.4 kmh 29.88 in1011.9 mb 0.00 in0.0 mm 0.00 in0.0 mm 0.00 in0.0 mm
10:00 AM 96.3°F35.7°C 58.0°F14.4°C 28% 0.8 mph S1.3 kmh S 2.0 mph3.2 kmh 29.88 in1011.9 mb 0.00 in0.0 mm 0.00 in0.0 mm 0.00 in0.0 mm
10:10 AM 96.7°F35.9°C 59.0°F15.0°C 28% 1.1 mph S1.8 kmh S 4.0 mph6.4 kmh 29.87 in1011.5 mb 0.00 in0.0 mm 0.00 in0.0 mm 0.00 in0.0 mm
10:20 AM 97.0°F36.1°C 58.0°F14.4°C 27% 0.8 mph ESE1.3 kmh ESE 3.0 mph4.8 kmh 29.87 in1011.5 mb 0.00 in0.0 mm 0.00 in0.0 mm 0.00 in0.0 mm
10:30 AM 97.1°F36.2°C 57.0°F13.9°C 26% 1.5 mph NNE2.4 kmh NNE 6.0 mph9.7 kmh 29.87 in1011.5 mb 0.00 in0.0 mm 0.00 in0.0 mm 0.00 in0.0 mm
10:40 AM 97.0°F36.1°C 58.0°F14.4°C 27% 1.0 mph SE1.6 kmh SE 3.0 mph4.8 kmh 29.86 in1011.2 mb 0.00 in0.0 mm 0.00 in0.0 mm 0.00 in0.0 mm
10:50 AM 98.0°F36.7°C 58.0°F14.4°C 26% 1.7 mph SE2.7 kmh SE 5.0 mph8.0 kmh 29.86 in1011.2 mb 0.00 in0.0 mm 0.00 in0.0 mm 0.00 in0.0 mm
11:00 AM 99.3°F37.4°C 57.0°F13.9°C 24% 2.0 mph NW3.2 kmh NW 6.0 mph9.7 kmh 29.86 in1011.2 mb 0.00 in0.0 mm 0.00 in0.0 mm 0.00 in0.0 mm
11:10 AM 99.2°F37.3°C 58.0°F14.4°C 25% 1.1 mph NNE1.8 kmh NNE 3.0 mph4.8 kmh 29.86 in1011.2 mb 0.00 in0.0 mm 0.00 in0.0 mm 0.00 in0.0 mm
11:20 AM 99.3°F37.4°C 58.0°F14.4°C 25% 2.2 mph SSW3.5 kmh SSW 6.0 mph9.7 kmh 29.85 in1010.8 mb 0.00 in0.0 mm 0.00 in0.0 mm 0.00 in0.0 mm
11:30 AM 99.0°F37.2°C 59.0°F15.0°C 26% 1.9 mph SE3.1 kmh SE 6.0 mph9.7 kmh 29.84 in1010.5 mb 0.00 in0.0 mm 0.00 in0.0 mm 0.00 in0.0 mm
11:40 AM 99.7°F37.6°C 57.0°F13.9°C 24% 1.8 mph NW2.9 kmh NW 5.0 mph8.0 kmh 29.84 in1010.5 mb 0.00 in0.0 mm 0.00 in0.0 mm 0.00 in0.0 mm
11:50 AM 100.4°F38.0°C 58.0°F14.4°C 24% 1.8 mph SW2.9 kmh SW 8.0 mph12.9 kmh 29.84 in1010.5 mb 0.00 in0.0 mm 0.00 in0.0 mm 0.00 in0.0 mm
12:00 PM 100.6°F38.1°C 58.0°F14.4°C 24% 3.7 mph SSW6.0 kmh SSW 10.0 mph16.1 kmh 29.83 in1010.2 mb 0.00 in0.0 mm 0.00 in0.0 mm 0.00 in0.0 mm
12:10 PM 100.7°F38.2°C 59.0°F15.0°C 25% 2.0 mph S3.2 kmh S 7.0 mph11.3 kmh 29.82 in1009.8 mb 0.00 in0.0 mm 0.00 in0.0 mm 0.00 in0.0 mm
12:20 PM 101.3°F38.5°C 60.0°F15.6°C 25% 2.4 mph SE3.9 kmh SE 11.0 mph17.7 kmh 29.82 in1009.8 mb 0.00 in0.0 mm 0.00 in0.0 mm 0.00 in0.0 mm
12:30 PM 101.1°F38.4°C 58.0°F14.4°C 24% 3.4 mph SE5.5 kmh SE 7.0 mph11.3 kmh 29.82 in1009.8 mb 0.00 in0.0 mm 0.00 in0.0 mm 0.00 in0.0 mm
12:40 PM 101.1°F38.4°C 59.0°F15.0°C 25% 4.6 mph SW7.4 kmh SW 9.0 mph14.5 kmh 29.81 in1009.5 mb 0.00 in0.0 mm 0.00 in0.0 mm 0.00 in0.0 mm
12:50 PM 102.3°F39.1°C 58.0°F14.4°C 23% 2.3 mph NW3.7 kmh NW 7.0 mph11.3 kmh 29.81 in1009.5 mb 0.00 in0.0 mm 0.00 in0.0 mm 0.00 in0.0 mm
01:00 PM 101.9°F38.8°C 58.0°F14.4°C 23% 2.8 mph SSE4.5 kmh SSE 9.0 mph14.5 kmh 29.80 in1009.1 mb 0.00 in0.0 mm 0.00 in0.0 mm 0.00 in0.0 mm
01:10 PM 103.0°F39.4°C 59.0°F15.0°C 23% 3.3 mph SW5.3 kmh SW 7.0 mph11.3 kmh 29.80 in1009.1 mb 0.00 in0.0 mm 0.00 in0.0 mm 0.00 in0.0 mm
01:20 PM 103.3°F39.6°C 58.0°F14.4°C 22% 2.1 mph WSW3.4 kmh WSW 7.0 mph11.3 kmh 29.79 in1008.8 mb 0.00 in0.0 mm 0.00 in0.0 mm 0.00 in0.0 mm
01:30 PM 104.2°F40.1°C 57.0°F13.9°C 21% 2.5 mph NNE4.0 kmh NNE 9.0 mph14.5 kmh 29.79 in1008.8 mb 0.00 in0.0 mm 0.00 in0.0 mm 0.00 in0.0 mm
01:40 PM 104.3°F40.2°C 57.0°F13.9°C 21% 2.4 mph SW3.9 kmh SW 10.0 mph16.1 kmh 29.78 in1008.5 mb 0.00 in0.0 mm 0.00 in0.0 mm 0.00 in0.0 mm
01:50 PM 104.3°F40.2°C 58.0°F14.4°C 22% 3.3 mph S5.3 kmh S 9.0 mph14.5 kmh 29.77 in1008.1 mb 0.00 in0.0 mm 0.00 in0.0 mm 0.00 in0.0 mm
02:00 PM 104.2°F40.1°C 56.0°F13.3°C 20% 4.2 mph SW6.8 kmh SW 9.0 mph14.5 kmh 29.77 in1008.1 mb 0.00 in0.0 mm 0.00 in0.0 mm 0.00 in0.0 mm
02:10 PM 105.0°F40.6°C 58.0°F14.4°C 21% 2.5 mph SW4.0 kmh SW 7.0 mph11.3 kmh 29.76 in1007.8 mb 0.00 in0.0 mm 0.00 in0.0 mm 0.00 in0.0 mm
02:20 PM 105.7°F40.9°C 56.0°F13.3°C 19% 3.0 mph S4.8 kmh S 9.0 mph14.5 kmh 29.76 in1007.8 mb 0.00 in0.0 mm 0.00 in0.0 mm 0.00 in0.0 mm
02:30 PM 105.8°F41.0°C 56.0°F13.3°C 19% 3.9 mph SSW6.3 kmh SSW 11.0 mph17.7 kmh 29.75 in1007.5 mb 0.00 in0.0 mm 0.00 in0.0 mm 0.00 in0.0 mm
02:40 PM 106.0°F41.1°C 54.0°F12.2°C 18% 3.3 mph SE5.3 kmh SE 10.0 mph16.1 kmh 29.74 in1007.1 mb 0.00 in0.0 mm 0.00 in0.0 mm 0.00 in0.0 mm
02:50 PM 106.0°F41.1°C 54.0°F12.2°C 18% 3.7 mph NW6.0 kmh NW 9.0 mph14.5 kmh 29.74 in1007.1 mb 0.00 in0.0 mm 0.00 in0.0 mm 0.00 in0.0 mm
03:00 PM 106.7°F41.5°C 53.0°F11.7°C 17% 2.3 mph SW3.7 kmh SW 9.0 mph14.5 kmh 29.73 in1006.8 mb 0.00 in0.0 mm 0.00 in0.0 mm 0.00 in0.0 mm
03:10 PM 106.4°F41.3°C 53.0°F11.7°C 17% 4.2 mph SE6.8 kmh SE 10.0 mph16.1 kmh 29.73 in1006.8 mb 0.00 in0.0 mm 0.00 in0.0 mm 0.00 in0.0 mm
03:20 PM 106.9°F41.6°C 55.0°F12.8°C 18% 4.3 mph SE6.9 kmh SE 11.0 mph17.7 kmh 29.72 in1006.4 mb 0.00 in0.0 mm 0.00 in0.0 mm 0.00 in0.0 mm
03:30 PM 107.1°F41.7°C 55.0°F12.8°C 18% 4.0 mph SW6.4 kmh SW 11.0 mph17.7 kmh 29.72 in1006.4 mb 0.00 in0.0 mm 0.00 in0.0 mm 0.00 in0.0 mm
03:40 PM 107.0°F41.7°C 55.0°F12.8°C 18% 3.1 mph W5.0 kmh W 10.0 mph16.1 kmh 29.71 in1006.1 mb 0.00 in0.0 mm 0.00 in0.0 mm 0.00 in0.0 mm
03:50 PM 107.0°F41.7°C 54.0°F12.2°C 17% 5.2 mph S8.4 kmh S 14.0 mph22.5 kmh 29.71 in1006.1 mb 0.00 in0.0 mm 0.00 in0.0 mm 0.00 in0.0 mm
04:00 PM 106.6°F41.4°C 53.0°F11.7°C 17% 5.3 mph SW8.5 kmh SW 11.0 mph17.7 kmh 29.71 in1006.1 mb 0.00 in0.0 mm 0.00 in0.0 mm 0.00 in0.0 mm
04:10 PM 106.5°F41.4°C 53.0°F11.7°C 17% 4.8 mph SE7.7 kmh SE 12.0 mph19.3 kmh 29.71 in1006.1 mb 0.00 in0.0 mm 0.00 in0.0 mm 0.00 in0.0 mm
04:20 PM 106.7°F41.5°C 53.0°F11.7°C 17% 4.5 mph S7.2 kmh S 11.0 mph17.7 kmh 29.71 in1006.1 mb 0.00 in0.0 mm 0.00 in0.0 mm 0.00 in0.0 mm
04:30 PM 106.3°F41.3°C 53.0°F11.7°C 17% 4.8 mph SW7.7 kmh SW 11.0 mph17.7 kmh 29.70 in1005.8 mb 0.00 in0.0 mm 0.00 in0.0 mm 0.00 in0.0 mm
04:40 PM 106.3°F41.3°C 53.0°F11.7°C 17% 5.1 mph S8.2 kmh S 11.0 mph17.7 kmh 29.70 in1005.8 mb 0.00 in0.0 mm 0.00 in0.0 mm 0.00 in0.0 mm
04:50 PM 106.2°F41.2°C 53.0°F11.7°C 17% 4.7 mph SW7.6 kmh SW 12.0 mph19.3 kmh 29.70 in1005.8 mb 0.00 in0.0 mm 0.00 in0.0 mm 0.00 in0.0 mm
05:00 PM 106.3°F41.3°C 53.0°F11.7°C 17% 3.6 mph SSW5.8 kmh SSW 10.0 mph16.1 kmh 29.70 in1005.8 mb 0.00 in0.0 mm 0.00 in0.0 mm 0.00 in0.0 mm
05:10 PM 105.6°F40.9°C 53.0°F11.7°C 17% 5.7 mph SSW9.2 kmh SSW 13.0 mph20.9 kmh 29.70 in1005.8 mb 0.00 in0.0 mm 0.00 in0.0 mm 0.00 in0.0 mm
05:20 PM 105.4°F40.8°C 51.0°F10.6°C 16% 5.8 mph SW9.3 kmh SW 11.0 mph17.7 kmh 29.70 in1005.8 mb 0.00 in0.0 mm 0.00 in0.0 mm 0.00 in0.0 mm
05:30 PM 105.1°F40.6°C 52.0°F11.1°C 17% 5.6 mph SSW9.0 kmh SSW 11.0 mph17.7 kmh 29.70 in1005.8 mb 0.00 in0.0 mm 0.00 in0.0 mm 0.00 in0.0 mm
05:40 PM 105.5°F40.8°C 51.0°F10.6°C 16% 3.0 mph SW4.8 kmh SW 9.0 mph14.5 kmh 29.71 in1006.1 mb 0.00 in0.0 mm 0.00 in0.0 mm 0.00 in0.0 mm
05:50 PM 105.2°F40.7°C 51.0°F10.6°C 16% 4.6 mph SW7.4 kmh SW 11.0 mph17.7 kmh 29.71 in1006.1 mb 0.00 in0.0 mm 0.00 in0.0 mm 0.00 in0.0 mm
06:00 PM 104.8°F40.4°C 52.0°F11.1°C 17% 5.1 mph S8.2 kmh S 11.0 mph17.7 kmh 29.71 in1006.1 mb 0.00 in0.0 mm 0.00 in0.0 mm 0.00 in0.0 mm
06:10 PM 104.5°F40.3°C 52.0°F11.1°C 17% 4.6 mph SW7.4 kmh SW 10.0 mph16.1 kmh 29.71 in1006.1 mb 0.00 in0.0 mm 0.00 in0.0 mm 0.00 in0.0 mm
06:20 PM 104.3°F40.2°C 51.0°F10.6°C 17% 3.5 mph SSW5.6 kmh SSW 8.0 mph12.9 kmh 29.71 in1006.1 mb 0.00 in0.0 mm 0.00 in0.0 mm 0.00 in0.0 mm
06:30 PM 103.8°F39.9°C 51.0°F10.6°C 17% 5.5 mph S8.9 kmh S 13.0 mph20.9 kmh 29.71 in1006.1 mb 0.00 in0.0 mm 0.00 in0.0 mm 0.00 in0.0 mm
06:40 PM 103.5°F39.7°C 52.0°F11.1°C 18% 3.8 mph SW6.1 kmh SW 9.0 mph14.5 kmh 29.72 in1006.4 mb 0.00 in0.0 mm 0.00 in0.0 mm 0.00 in0.0 mm
06:50 PM 103.1°F39.5°C 52.0°F11.1°C 18% 3.4 mph N5.5 kmh N 8.0 mph12.9 kmh 29.74 in1007.1 mb 0.00 in0.0 mm 0.00 in0.0 mm 0.00 in0.0 mm
07:00 PM 99.0°F37.2°C 54.0°F12.2°C 22% 8.6 mph NNW13.8 kmh NNW 17.0 mph27.4 kmh 29.73 in1006.8 mb 0.00 in0.0 mm 0.00 in0.0 mm 0.00 in0.0 mm
07:10 PM 97.4°F36.3°C 54.0°F12.2°C 23% 7.7 mph NE12.4 kmh NE 12.0 mph19.3 kmh 29.73 in1006.8 mb 0.00 in0.0 mm 0.00 in0.0 mm 0.00 in0.0 mm
07:20 PM 97.0°F36.1°C 55.0°F12.8°C 24% 6.6 mph NNE10.6 kmh NNE 13.0 mph20.9 kmh 29.73 in1006.8 mb 0.00 in0.0 mm 0.00 in0.0 mm 0.00 in0.0 mm
07:30 PM 97.3°F36.3°C 55.0°F12.8°C 24% 8.5 mph NW13.7 kmh NW 17.0 mph27.4 kmh 29.73 in1006.8 mb 0.00 in0.0 mm 0.00 in0.0 mm 0.00 in0.0 mm
07:40 PM 96.6°F35.9°C 52.0°F11.1°C 22% 7.7 mph NNE12.4 kmh NNE 15.0 mph24.1 kmh 29.73 in1006.8 mb 0.00 in0.0 mm 0.00 in0.0 mm 0.00 in0.0 mm
07:50 PM 94.9°F34.9°C 55.0°F12.8°C 26% 6.1 mph N9.8 kmh N 16.0 mph25.7 kmh 29.73 in1006.8 mb 0.00 in0.0 mm 0.00 in0.0 mm 0.00 in0.0 mm
08:00 PM 92.9°F33.8°C 55.0°F12.8°C 28% 5.3 mph N8.5 kmh N 12.0 mph19.3 kmh 29.73 in1006.8 mb 0.00 in0.0 mm 0.00 in0.0 mm 0.00 in0.0 mm
08:10 PM 92.7°F33.7°C 55.0°F12.8°C 28% 5.9 mph N9.5 kmh N 12.0 mph19.3 kmh 29.73 in1006.8 mb 0.00 in0.0 mm 0.00 in0.0 mm 0.00 in0.0 mm
08:20 PM 93.6°F34.2°C 53.0°F11.7°C 25% 8.1 mph N13.0 kmh N 14.0 mph22.5 kmh 29.73 in1006.8 mb 0.00 in0.0 mm 0.00 in0.0 mm 0.00 in0.0 mm
08:30 PM 94.7°F34.8°C 53.0°F11.7°C 24% 6.2 mph N10.0 kmh N 13.0 mph20.9 kmh 29.73 in1006.8 mb 0.00 in0.0 mm 0.00 in0.0 mm 0.00 in0.0 mm
08:40 PM 95.5°F35.3°C 52.0°F11.1°C 23% 5.8 mph N9.3 kmh N 11.0 mph17.7 kmh 29.74 in1007.1 mb 0.00 in0.0 mm 0.00 in0.0 mm 0.00 in0.0 mm
08:50 PM 93.7°F34.3°C 55.0°F12.8°C 27% 2.3 mph W3.7 kmh W 4.0 mph6.4 kmh 29.74 in1007.1 mb 0.00 in0.0 mm 0.00 in0.0 mm 0.00 in0.0 mm
09:00 PM 92.6°F33.7°C 55.0°F12.8°C 28% 2.1 mph WNW3.4 kmh WNW 3.0 mph4.8 kmh 29.74 in1007.1 mb 0.00 in0.0 mm 0.00 in0.0 mm 0.00 in0.0 mm
09:10 PM 92.5°F33.6°C 54.0°F12.2°C 27% 0.7 mph N1.1 kmh N 2.0 mph3.2 kmh 29.74 in1007.1 mb 0.00 in0.0 mm 0.00 in0.0 mm 0.00 in0.0 mm
09:20 PM 92.4°F33.6°C 54.0°F12.2°C 27% Calm Calm 1.0 mph1.6 kmh 29.75 in1007.5 mb 0.00 in0.0 mm 0.00 in0.0 mm 0.00 in0.0 mm
09:30 PM 92.1°F33.4°C 54.0°F12.2°C 27% Calm Calm 1.0 mph1.6 kmh 29.75 in1007.5 mb 0.00 in0.0 mm 0.00 in0.0 mm 0.00 in0.0 mm
09:40 PM 92.7°F33.7°C 53.0°F11.7°C 26% 0.5 mph N0.8 kmh N 2.0 mph3.2 kmh 29.76 in1007.8 mb 0.00 in0.0 mm 0.00 in0.0 mm 0.00 in0.0 mm
09:50 PM 92.7°F33.7°C 53.0°F11.7°C 26% 0.5 mph NE0.8 kmh NE 2.0 mph3.2 kmh 29.76 in1007.8 mb 0.00 in0.0 mm 0.00 in0.0 mm 0.00 in0.0 mm
10:00 PM 92.1°F33.4°C 54.0°F12.2°C 27% Calm Calm 1.0 mph1.6 kmh 29.77 in1008.1 mb 0.00 in0.0 mm 0.00 in0.0 mm 0.00 in0.0 mm
10:10 PM 91.9°F33.3°C 53.0°F11.7°C 27% 0.1 mph N0.2 kmh N 1.0 mph1.6 kmh 29.77 in1008.1 mb 0.00 in0.0 mm 0.00 in0.0 mm 0.00 in0.0 mm
10:20 PM 91.1°F32.8°C 54.0°F12.2°C 28% Calm Calm 1.0 mph1.6 kmh 29.77 in1008.1 mb 0.00 in0.0 mm 0.00 in0.0 mm 0.00 in0.0 mm
10:30 PM 91.7°F33.2°C 53.0°F11.7°C 27% 2.0 mph NNE3.2 kmh NNE 5.0 mph8.0 kmh 29.77 in1008.1 mb 0.00 in0.0 mm 0.00 in0.0 mm 0.00 in0.0 mm
10:40 PM 91.7°F33.2°C 53.0°F11.7°C 27% 2.3 mph NNE3.7 kmh NNE 5.0 mph8.0 kmh 29.78 in1008.5 mb 0.00 in0.0 mm 0.00 in0.0 mm 0.00 in0.0 mm
10:50 PM 91.6°F33.1°C 54.0°F12.2°C 28% 2.4 mph N3.9 kmh N 5.0 mph8.0 kmh 29.77 in1008.1 mb 0.00 in0.0 mm 0.00 in0.0 mm 0.00 in0.0 mm
11:00 PM 91.3°F32.9°C 53.0°F11.7°C 27% 0.9 mph N1.4 kmh N 3.0 mph4.8 kmh 29.78 in1008.5 mb 0.00 in0.0 mm 0.00 in0.0 mm 0.00 in0.0 mm
11:10 PM 92.2°F33.4°C 53.0°F11.7°C 26% 1.9 mph N3.1 kmh N 4.0 mph6.4 kmh 29.78 in1008.5 mb 0.00 in0.0 mm 0.00 in0.0 mm 0.00 in0.0 mm
11:20 PM 92.3°F33.5°C 55.0°F12.8°C 28% 3.9 mph N6.3 kmh N 11.0 mph17.7 kmh 29.78 in1008.5 mb 0.00 in0.0 mm 0.00 in0.0 mm 0.00 in0.0 mm
11:30 PM 92.2°F33.4°C 55.0°F12.8°C 28% 5.5 mph NNW8.9 kmh NNW 12.0 mph19.3 kmh 29.77 in1008.1 mb 0.00 in0.0 mm 0.00 in0.0 mm 0.00 in0.0 mm
11:40 PM 91.9°F33.3°C 55.0°F12.8°C 29% 5.1 mph NNE8.2 kmh NNE 11.0 mph17.7 kmh 29.77 in1008.1 mb 0.00 in0.0 mm 0.00 in0.0 mm 0.00 in0.0 mm
11:50 PM 92.0°F33.3°C 55.0°F12.8°C 29% 5.6 mph NE9.0 kmh NE 11.0 mph17.7 kmh 29.77 in1008.1 mb 0.00 in0.0 mm 0.00 in0.0 mm 0.00 in0.0 mm